PILOTS ONLINE: 345    ATC ONLINE: 34

CYIK

Ivujivik Airport

Location

IATA YIK
City Ivujivik
Country  Canada
Latitude 62° 25' 2" N
Longitude 77° 55' 31" W
Elevation 126 ft
Type Medium Airport

Map

Weather

METAR
2014/09/18 13:00
CYIK 181300Z 35019G26KT 6SM -SN BR OVC007 00/M00 A2982 RMK ST8 SLP101
TAF
2014/09/17 14:00
TAF CYIK 171338Z 1714/1721 36018G28KT P6SM FEW012 BKN025 
      TEMPO 1714/1721 2SM -SHSN OVC012 
      RMK NXT FCST WILL BE ISSUED AT 181345Z

Runways

08/26 3521 ft / 100 ft

Outbound flights

Callsign Flying to Pilot ATD/STD ETA Aircraft

Inbound flights

Callsign Flying from Pilot ATD ETA Aircraft